sensor_id;sensor_type;location;lat;lon;timestamp;temperature;humidity
46562;DHT22;32289;42.688;23.330;2022-12-18T00:01:51;6.50;99.90
46562;DHT22;32289;42.688;23.330;2022-12-18T00:05:33;6.40;99.90
46562;DHT22;32289;42.688;23.330;2022-12-18T00:09:14;6.60;99.90
46562;DHT22;32289;42.688;23.330;2022-12-18T00:12:55;6.40;99.90
46562;DHT22;32289;42.688;23.330;2022-12-18T00:16:36;6.30;99.90
46562;DHT22;32289;42.688;23.330;2022-12-18T00:20:17;6.30;99.90
46562;DHT22;32289;42.688;23.330;2022-12-18T00:24:04;6.20;99.90
46562;DHT22;32289;42.688;23.330;2022-12-18T00:27:45;6.20;99.90
46562;DHT22;32289;42.688;23.330;2022-12-18T00:31:26;6.30;99.90
46562;DHT22;32289;42.688;23.330;2022-12-18T00:35:07;6.10;99.90
46562;DHT22;32289;42.688;23.330;2022-12-18T00:38:48;6.10;99.90
46562;DHT22;32289;42.688;23.330;2022-12-18T00:42:29;5.90;99.90
46562;DHT22;32289;42.688;23.330;2022-12-18T00:46:30;5.90;99.90
46562;DHT22;32289;42.688;23.330;2022-12-18T00:50:11;6.00;99.90
46562;DHT22;32289;42.688;23.330;2022-12-18T00:53:52;5.90;99.90
46562;DHT22;32289;42.688;23.330;2022-12-18T00:57:33;5.70;99.90
46562;DHT22;32289;42.688;23.330;2022-12-18T01:01:13;5.80;99.90
46562;DHT22;32289;42.688;23.330;2022-12-18T01:04:54;5.70;99.90
46562;DHT22;32289;42.688;23.330;2022-12-18T01:08:35;5.80;99.90
46562;DHT22;32289;42.688;23.330;2022-12-18T01:12:21;5.80;99.90
46562;DHT22;32289;42.688;23.330;2022-12-18T01:16:02;5.60;99.90
46562;DHT22;32289;42.688;23.330;2022-12-18T01:19:43;5.40;99.90
46562;DHT22;32289;42.688;23.330;2022-12-18T01:23:24;5.50;99.90
46562;DHT22;32289;42.688;23.330;2022-12-18T01:27:04;5.50;99.90
46562;DHT22;32289;42.688;23.330;2022-12-18T01:30:45;5.50;99.90
46562;DHT22;32289;42.688;23.330;2022-12-18T01:34:26;5.50;99.90
46562;DHT22;32289;42.688;23.330;2022-12-18T01:38:06;5.30;99.90
46562;DHT22;32289;42.688;23.330;2022-12-18T01:41:47;5.30;99.90
46562;DHT22;32289;42.688;23.330;2022-12-18T01:45:43;5.30;99.90
46562;DHT22;32289;42.688;23.330;2022-12-18T01:49:24;5.20;99.90
46562;DHT22;32289;42.688;23.330;2022-12-18T01:53:19;5.10;99.90
46562;DHT22;32289;42.688;23.330;2022-12-18T01:57:01;5.20;99.90
46562;DHT22;32289;42.688;23.330;2022-12-18T02:00:43;5.10;99.90
46562;DHT22;32289;42.688;23.330;2022-12-18T02:04:25;5.00;99.90
46562;DHT22;32289;42.688;23.330;2022-12-18T02:08:10;5.00;99.90
46562;DHT22;32289;42.688;23.330;2022-12-18T02:12:10;4.90;99.90
46562;DHT22;32289;42.688;23.330;2022-12-18T02:16:06;4.80;99.90
46562;DHT22;32289;42.688;23.330;2022-12-18T02:19:57;4.90;99.90
46562;DHT22;32289;42.688;23.330;2022-12-18T02:27:45;4.80;99.90
46562;DHT22;32289;42.688;23.330;2022-12-18T02:31:30;4.80;99.90
46562;DHT22;32289;42.688;23.330;2022-12-18T02:35:16;4.80;99.90
46562;DHT22;32289;42.688;23.330;2022-12-18T02:39:01;4.60;99.90
46562;DHT22;32289;42.688;23.330;2022-12-18T02:42:42;4.70;99.90
46562;DHT22;32289;42.688;23.330;2022-12-18T02:46:38;4.50;99.90
46562;DHT22;32289;42.688;23.330;2022-12-18T02:50:37;4.60;99.90
46562;DHT22;32289;42.688;23.330;2022-12-18T02:58:26;4.70;99.90
46562;DHT22;32289;42.688;23.330;2022-12-18T03:02:35;4.70;99.90
46562;DHT22;32289;42.688;23.330;2022-12-18T03:06:37;4.70;99.90
46562;DHT22;32289;42.688;23.330;2022-12-18T03:10:26;4.70;99.90
46562;DHT22;32289;42.688;23.330;2022-12-18T03:14:09;4.70;99.90
46562;DHT22;32289;42.688;23.330;2022-12-18T03:17:56;4.60;99.90
46562;DHT22;32289;42.688;23.330;2022-12-18T03:21:45;4.60;99.90
46562;DHT22;32289;42.688;23.330;2022-12-18T03:25:28;4.60;99.90
46562;DHT22;32289;42.688;23.330;2022-12-18T03:29:15;4.60;99.90
46562;DHT22;32289;42.688;23.330;2022-12-18T03:33:07;4.60;99.90
46562;DHT22;32289;42.688;23.330;2022-12-18T03:36:49;4.50;99.90
46562;DHT22;32289;42.688;23.330;2022-12-18T03:40:56;4.50;99.90
46562;DHT22;32289;42.688;23.330;2022-12-18T03:48:41;4.60;99.90
46562;DHT22;32289;42.688;23.330;2022-12-18T03:52:33;4.50;99.90
46562;DHT22;32289;42.688;23.330;2022-12-18T03:56:17;4.60;99.90
46562;DHT22;32289;42.688;23.330;2022-12-18T04:00:03;4.50;99.90
46562;DHT22;32289;42.688;23.330;2022-12-18T04:03:47;4.50;99.90
46562;DHT22;32289;42.688;23.330;2022-12-18T04:07:29;4.40;99.90
46562;DHT22;32289;42.688;23.330;2022-12-18T04:11:10;4.50;99.90
46562;DHT22;32289;42.688;23.330;2022-12-18T04:14:51;4.40;99.90
46562;DHT22;32289;42.688;23.330;2022-12-18T04:18:32;4.40;99.90
46562;DHT22;32289;42.688;23.330;2022-12-18T04:22:13;4.40;99.90
46562;DHT22;32289;42.688;23.330;2022-12-18T04:25:54;4.30;99.90
46562;DHT22;32289;42.688;23.330;2022-12-18T04:29:35;4.30;99.90
46562;DHT22;32289;42.688;23.330;2022-12-18T04:33:16;4.30;99.90
46562;DHT22;32289;42.688;23.330;2022-12-18T04:36:56;4.50;99.90
46562;DHT22;32289;42.688;23.330;2022-12-18T04:40:37;4.40;99.90
46562;DHT22;32289;42.688;23.330;2022-12-18T04:44:18;4.30;99.90
46562;DHT22;32289;42.688;23.330;2022-12-18T04:48:00;4.30;99.90
46562;DHT22;32289;42.688;23.330;2022-12-18T04:51:41;4.30;99.90
46562;DHT22;32289;42.688;23.330;2022-12-18T04:55:21;4.30;99.90
46562;DHT22;32289;42.688;23.330;2022-12-18T04:59:02;4.30;99.90
46562;DHT22;32289;42.688;23.330;2022-12-18T05:02:43;4.30;99.90
46562;DHT22;32289;42.688;23.330;2022-12-18T05:06:23;4.10;99.90
46562;DHT22;32289;42.688;23.330;2022-12-18T05:10:05;4.20;99.90
46562;DHT22;32289;42.688;23.330;2022-12-18T05:13:48;4.20;99.90
46562;DHT22;32289;42.688;23.330;2022-12-18T05:17:29;4.20;99.90
46562;DHT22;32289;42.688;23.330;2022-12-18T05:21:10;4.10;99.90
46562;DHT22;32289;42.688;23.330;2022-12-18T05:24:51;4.00;99.90
46562;DHT22;32289;42.688;23.330;2022-12-18T05:28:36;3.90;99.90
46562;DHT22;32289;42.688;23.330;2022-12-18T05:32:17;4.00;99.90
46562;DHT22;32289;42.688;23.330;2022-12-18T05:36:00;4.00;99.90
46562;DHT22;32289;42.688;23.330;2022-12-18T05:39:43;3.90;99.90
46562;DHT22;32289;42.688;23.330;2022-12-18T05:43:25;4.00;99.90
46562;DHT22;32289;42.688;23.330;2022-12-18T05:47:08;3.90;99.90
46562;DHT22;32289;42.688;23.330;2022-12-18T05:50:50;3.90;99.90
46562;DHT22;32289;42.688;23.330;2022-12-18T05:54:31;3.90;99.90
46562;DHT22;32289;42.688;23.330;2022-12-18T05:58:12;3.90;99.90
46562;DHT22;32289;42.688;23.330;2022-12-18T06:01:53;3.90;99.90
46562;DHT22;32289;42.688;23.330;2022-12-18T06:05:42;3.80;99.90
46562;DHT22;32289;42.688;23.330;2022-12-18T06:09:23;3.80;99.90
46562;DHT22;32289;42.688;23.330;2022-12-18T06:13:04;3.80;99.90
46562;DHT22;32289;42.688;23.330;2022-12-18T06:16:45;3.80;99.90
46562;DHT22;32289;42.688;23.330;2022-12-18T06:20:26;3.90;99.90
46562;DHT22;32289;42.688;23.330;2022-12-18T06:24:07;3.80;99.90
46562;DHT22;32289;42.688;23.330;2022-12-18T06:27:48;3.80;99.90
46562;DHT22;32289;42.688;23.330;2022-12-18T06:31:29;3.80;99.90
46562;DHT22;32289;42.688;23.330;2022-12-18T06:35:09;3.80;99.90
46562;DHT22;32289;42.688;23.330;2022-12-18T06:38:50;4.10;99.90
46562;DHT22;32289;42.688;23.330;2022-12-18T06:42:31;3.90;99.90
46562;DHT22;32289;42.688;23.330;2022-12-18T06:46:12;3.90;99.90
46562;DHT22;32289;42.688;23.330;2022-12-18T06:49:53;3.90;99.90
46562;DHT22;32289;42.688;23.330;2022-12-18T06:53:34;3.90;99.90
46562;DHT22;32289;42.688;23.330;2022-12-18T06:57:14;3.90;99.90
46562;DHT22;32289;42.688;23.330;2022-12-18T07:01:06;3.90;99.90
46562;DHT22;32289;42.688;23.330;2022-12-18T07:04:51;4.00;99.90
46562;DHT22;32289;42.688;23.330;2022-12-18T07:08:33;3.90;99.90
46562;DHT22;32289;42.688;23.330;2022-12-18T07:12:14;4.00;99.90
46562;DHT22;32289;42.688;23.330;2022-12-18T07:16:02;4.20;99.90
46562;DHT22;32289;42.688;23.330;2022-12-18T07:19:43;4.00;99.90
46562;DHT22;32289;42.688;23.330;2022-12-18T07:23:24;3.90;99.90
46562;DHT22;32289;42.688;23.330;2022-12-18T07:27:04;3.90;99.90
46562;DHT22;32289;42.688;23.330;2022-12-18T07:30:45;3.70;99.90
46562;DHT22;32289;42.688;23.330;2022-12-18T07:34:27;3.70;99.90
46562;DHT22;32289;42.688;23.330;2022-12-18T07:38:09;4.00;99.90
46562;DHT22;32289;42.688;23.330;2022-12-18T07:41:50;3.80;99.90
46562;DHT22;32289;42.688;23.330;2022-12-18T07:45:49;3.80;99.90
46562;DHT22;32289;42.688;23.330;2022-12-18T07:49:30;3.80;99.90
46562;DHT22;32289;42.688;23.330;2022-12-18T07:53:11;3.60;99.90
46562;DHT22;32289;42.688;23.330;2022-12-18T07:56:52;3.80;99.90
46562;DHT22;32289;42.688;23.330;2022-12-18T08:00:34;3.70;99.90
46562;DHT22;32289;42.688;23.330;2022-12-18T08:04:15;3.70;99.90
46562;DHT22;32289;42.688;23.330;2022-12-18T08:07:58;3.80;99.90
46562;DHT22;32289;42.688;23.330;2022-12-18T08:11:38;3.80;99.90
46562;DHT22;32289;42.688;23.330;2022-12-18T08:15:19;3.80;99.90
46562;DHT22;32289;42.688;23.330;2022-12-18T08:19:00;3.80;99.90
46562;DHT22;32289;42.688;23.330;2022-12-18T08:22:44;3.80;99.90
46562;DHT22;32289;42.688;23.330;2022-12-18T08:26:27;3.70;99.90
46562;DHT22;32289;42.688;23.330;2022-12-18T08:30:08;3.60;99.90
46562;DHT22;32289;42.688;23.330;2022-12-18T08:33:50;3.70;99.90
46562;DHT22;32289;42.688;23.330;2022-12-18T08:37:32;3.80;99.90
46562;DHT22;32289;42.688;23.330;2022-12-18T08:41:15;3.90;99.90
46562;DHT22;32289;42.688;23.330;2022-12-18T08:44:57;4.00;99.90
46562;DHT22;32289;42.688;23.330;2022-12-18T08:48:39;3.90;99.90
46562;DHT22;32289;42.688;23.330;2022-12-18T08:52:19;4.00;99.90
46562;DHT22;32289;42.688;23.330;2022-12-18T08:56:00;3.90;99.90
46562;DHT22;32289;42.688;23.330;2022-12-18T08:59:41;4.00;99.90
46562;DHT22;32289;42.688;23.330;2022-12-18T09:03:21;4.00;99.90
46562;DHT22;32289;42.688;23.330;2022-12-18T09:07:02;3.90;99.90
46562;DHT22;32289;42.688;23.330;2022-12-18T09:10:45;3.90;99.90
46562;DHT22;32289;42.688;23.330;2022-12-18T09:14:26;4.10;99.90
46562;DHT22;32289;42.688;23.330;2022-12-18T09:18:07;4.10;99.90
46562;DHT22;32289;42.688;23.330;2022-12-18T09:21:48;4.10;99.90
46562;DHT22;32289;42.688;23.330;2022-12-18T09:25:33;3.90;99.90
46562;DHT22;32289;42.688;23.330;2022-12-18T09:29:15;4.10;99.90
46562;DHT22;32289;42.688;23.330;2022-12-18T09:32:56;4.10;99.90
46562;DHT22;32289;42.688;23.330;2022-12-18T09:36:37;4.20;99.90
46562;DHT22;32289;42.688;23.330;2022-12-18T09:40:23;4.30;99.90
46562;DHT22;32289;42.688;23.330;2022-12-18T09:47:52;4.40;99.90
46562;DHT22;32289;42.688;23.330;2022-12-18T09:51:52;4.40;99.90
46562;DHT22;32289;42.688;23.330;2022-12-18T09:55:42;4.50;99.90
46562;DHT22;32289;42.688;23.330;2022-12-18T10:03:15;4.60;99.90
46562;DHT22;32289;42.688;23.330;2022-12-18T10:15:45;4.70;99.90
46562;DHT22;32289;42.688;23.330;2022-12-18T10:19:52;4.50;99.90
46562;DHT22;32289;42.688;23.330;2022-12-18T10:27:37;4.80;99.90
46562;DHT22;32289;42.688;23.330;2022-12-18T10:31:23;4.90;99.90
46562;DHT22;32289;42.688;23.330;2022-12-18T10:35:04;5.00;99.90
46562;DHT22;32289;42.688;23.330;2022-12-18T10:38:45;5.20;99.90
46562;DHT22;32289;42.688;23.330;2022-12-18T10:42:26;5.20;99.90
46562;DHT22;32289;42.688;23.330;2022-12-18T10:49:53;5.10;99.90
46562;DHT22;32289;42.688;23.330;2022-12-18T10:53:37;5.10;99.90
46562;DHT22;32289;42.688;23.330;2022-12-18T10:57:34;5.20;99.90
46562;DHT22;32289;42.688;23.330;2022-12-18T11:01:18;5.10;99.90
46562;DHT22;32289;42.688;23.330;2022-12-18T11:05:03;5.60;99.90
46562;DHT22;32289;42.688;23.330;2022-12-18T11:09:27;5.40;99.90
46562;DHT22;32289;42.688;23.330;2022-12-18T11:13:25;5.80;99.90
46562;DHT22;32289;42.688;23.330;2022-12-18T11:17:18;5.80;98.40
46562;DHT22;32289;42.688;23.330;2022-12-18T11:21:11;5.60;98.30
46562;DHT22;32289;42.688;23.330;2022-12-18T11:25:05;5.60;99.90
46562;DHT22;32289;42.688;23.330;2022-12-18T11:29:10;5.80;99.70
46562;DHT22;32289;42.688;23.330;2022-12-18T11:36:45;5.80;99.90
46562;DHT22;32289;42.688;23.330;2022-12-18T11:40:37;5.60;99.90
46562;DHT22;32289;42.688;23.330;2022-12-18T11:44:31;5.50;98.90
46562;DHT22;32289;42.688;23.330;2022-12-18T11:56:39;4.90;98.50
46562;DHT22;32289;42.688;23.330;2022-12-18T12:00:21;5.20;98.50
46562;DHT22;32289;42.688;23.330;2022-12-18T12:04:29;5.30;98.20
46562;DHT22;32289;42.688;23.330;2022-12-18T12:28:05;5.20;98.30
46562;DHT22;32289;42.688;23.330;2022-12-18T12:32:14;5.20;97.90
46562;DHT22;32289;42.688;23.330;2022-12-18T12:36:17;5.10;98.10
46562;DHT22;32289;42.688;23.330;2022-12-18T12:40:02;5.30;98.80
46562;DHT22;32289;42.688;23.330;2022-12-18T12:43:47;5.40;98.70
46562;DHT22;32289;42.688;23.330;2022-12-18T12:47:41;5.10;98.90
46562;DHT22;32289;42.688;23.330;2022-12-18T12:51:32;5.20;99.10
46562;DHT22;32289;42.688;23.330;2022-12-18T12:55:21;5.30;98.40
46562;DHT22;32289;42.688;23.330;2022-12-18T13:03:18;5.50;98.90
46562;DHT22;32289;42.688;23.330;2022-12-18T13:07:29;5.40;98.70
46562;DHT22;32289;42.688;23.330;2022-12-18T13:11:37;5.40;98.80
46562;DHT22;32289;42.688;23.330;2022-12-18T13:15:48;5.30;99.30
46562;DHT22;32289;42.688;23.330;2022-12-18T13:19:30;5.20;98.60
46562;DHT22;32289;42.688;23.330;2022-12-18T13:27:45;5.10;98.80
46562;DHT22;32289;42.688;23.330;2022-12-18T13:42:54;5.10;99.10
46562;DHT22;32289;42.688;23.330;2022-12-18T13:46:53;4.90;99.10
46562;DHT22;32289;42.688;23.330;2022-12-18T13:50:35;5.00;99.30
46562;DHT22;32289;42.688;23.330;2022-12-18T13:54:34;5.10;99.20
46562;DHT22;32289;42.688;23.330;2022-12-18T13:58:15;5.00;99.00
46562;DHT22;32289;42.688;23.330;2022-12-18T14:01:58;5.00;99.30
46562;DHT22;32289;42.688;23.330;2022-12-18T14:05:40;5.10;99.80
46562;DHT22;32289;42.688;23.330;2022-12-18T14:09:29;5.20;99.40
46562;DHT22;32289;42.688;23.330;2022-12-18T14:13:18;4.90;99.00
46562;DHT22;32289;42.688;23.330;2022-12-18T14:17:00;4.90;98.20
46562;DHT22;32289;42.688;23.330;2022-12-18T14:20:46;4.90;98.10
46562;DHT22;32289;42.688;23.330;2022-12-18T14:24:27;4.80;98.10
46562;DHT22;32289;42.688;23.330;2022-12-18T14:28:14;4.90;97.80
46562;DHT22;32289;42.688;23.330;2022-12-18T14:32:13;4.70;97.90
46562;DHT22;32289;42.688;23.330;2022-12-18T14:35:58;4.80;97.80
46562;DHT22;32289;42.688;23.330;2022-12-18T14:39:51;4.70;97.10
46562;DHT22;32289;42.688;23.330;2022-12-18T14:43:34;4.70;96.80
46562;DHT22;32289;42.688;23.330;2022-12-18T14:47:16;4.80;96.50
46562;DHT22;32289;42.688;23.330;2022-12-18T14:54:39;4.60;95.70
46562;DHT22;32289;42.688;23.330;2022-12-18T14:58:20;4.60;95.90
46562;DHT22;32289;42.688;23.330;2022-12-18T15:02:15;4.50;95.60
46562;DHT22;32289;42.688;23.330;2022-12-18T15:07:01;4.60;95.00
46562;DHT22;32289;42.688;23.330;2022-12-18T15:10:25;4.40;94.20
46562;DHT22;32289;42.688;23.330;2022-12-18T15:14:41;4.60;94.50
46562;DHT22;32289;42.688;23.330;2022-12-18T15:18:32;4.50;93.20
46562;DHT22;32289;42.688;23.330;2022-12-18T15:22:27;4.40;94.10
46562;DHT22;32289;42.688;23.330;2022-12-18T15:26:13;4.30;93.80
46562;DHT22;32289;42.688;23.330;2022-12-18T15:37:33;4.30;93.50
46562;DHT22;32289;42.688;23.330;2022-12-18T15:41:19;4.30;93.40
46562;DHT22;32289;42.688;23.330;2022-12-18T15:45:00;4.30;94.00
46562;DHT22;32289;42.688;23.330;2022-12-18T15:48:45;4.30;94.20
46562;DHT22;32289;42.688;23.330;2022-12-18T15:52:26;4.20;94.20
46562;DHT22;32289;42.688;23.330;2022-12-18T15:56:11;4.30;94.80
46562;DHT22;32289;42.688;23.330;2022-12-18T16:00:12;4.10;95.00
46562;DHT22;32289;42.688;23.330;2022-12-18T16:03:53;4.30;95.60
46562;DHT22;32289;42.688;23.330;2022-12-18T16:07:34;4.30;96.10
46562;DHT22;32289;42.688;23.330;2022-12-18T16:11:25;4.30;96.30
46562;DHT22;32289;42.688;23.330;2022-12-18T16:15:18;4.30;96.50
46562;DHT22;32289;42.688;23.330;2022-12-18T16:18:59;4.30;96.80
46562;DHT22;32289;42.688;23.330;2022-12-18T16:22:41;4.30;96.70
46562;DHT22;32289;42.688;23.330;2022-12-18T16:26:23;4.10;96.70
46562;DHT22;32289;42.688;23.330;2022-12-18T16:30:04;4.10;96.80
46562;DHT22;32289;42.688;23.330;2022-12-18T16:33:45;4.10;97.20
46562;DHT22;32289;42.688;23.330;2022-12-18T16:37:26;4.10;97.10
46562;DHT22;32289;42.688;23.330;2022-12-18T16:41:18;4.00;97.10
46562;DHT22;32289;42.688;23.330;2022-12-18T16:45:16;4.10;96.90
46562;DHT22;32289;42.688;23.330;2022-12-18T16:48:59;4.00;97.30
46562;DHT22;32289;42.688;23.330;2022-12-18T16:52:40;4.00;97.30
46562;DHT22;32289;42.688;23.330;2022-12-18T16:56:24;4.00;97.50
46562;DHT22;32289;42.688;23.330;2022-12-18T17:00:05;4.10;97.50
46562;DHT22;32289;42.688;23.330;2022-12-18T17:03:54;3.90;97.30
46562;DHT22;32289;42.688;23.330;2022-12-18T17:07:35;3.90;97.70
46562;DHT22;32289;42.688;23.330;2022-12-18T17:11:15;3.90;97.60
46562;DHT22;32289;42.688;23.330;2022-12-18T17:14:56;3.80;97.60
46562;DHT22;32289;42.688;23.330;2022-12-18T17:18:37;3.80;97.50
46562;DHT22;32289;42.688;23.330;2022-12-18T17:22:18;3.80;97.60
46562;DHT22;32289;42.688;23.330;2022-12-18T17:25:59;3.80;97.50
46562;DHT22;32289;42.688;23.330;2022-12-18T17:29:40;3.70;96.80
46562;DHT22;32289;42.688;23.330;2022-12-18T17:33:21;3.70;97.00
46562;DHT22;32289;42.688;23.330;2022-12-18T17:37:02;3.60;96.80
46562;DHT22;32289;42.688;23.330;2022-12-18T17:40:43;3.50;97.30
46562;DHT22;32289;42.688;23.330;2022-12-18T17:44:24;3.60;97.50
46562;DHT22;32289;42.688;23.330;2022-12-18T17:48:06;3.60;97.30
46562;DHT22;32289;42.688;23.330;2022-12-18T17:51:47;3.60;97.90
46562;DHT22;32289;42.688;23.330;2022-12-18T17:55:28;3.50;97.20
46562;DHT22;32289;42.688;23.330;2022-12-18T17:59:09;3.60;97.80
46562;DHT22;32289;42.688;23.330;2022-12-18T18:02:50;3.50;97.50
46562;DHT22;32289;42.688;23.330;2022-12-18T18:06:31;3.40;97.70
46562;DHT22;32289;42.688;23.330;2022-12-18T18:10:12;3.40;97.70
46562;DHT22;32289;42.688;23.330;2022-12-18T18:13:53;3.40;98.00
46562;DHT22;32289;42.688;23.330;2022-12-18T18:17:43;3.40;97.40
46562;DHT22;32289;42.688;23.330;2022-12-18T18:21:27;3.30;97.50
46562;DHT22;32289;42.688;23.330;2022-12-18T18:25:09;3.20;97.40
46562;DHT22;32289;42.688;23.330;2022-12-18T18:28:53;3.10;96.60
46562;DHT22;32289;42.688;23.330;2022-12-18T18:32:33;3.20;96.20
46562;DHT22;32289;42.688;23.330;2022-12-18T18:36:17;3.30;96.50
46562;DHT22;32289;42.688;23.330;2022-12-18T18:39:58;3.20;96.50
46562;DHT22;32289;42.688;23.330;2022-12-18T18:43:39;3.20;96.40
46562;DHT22;32289;42.688;23.330;2022-12-18T18:47:20;3.20;96.40
46562;DHT22;32289;42.688;23.330;2022-12-18T18:51:06;3.30;96.80
46562;DHT22;32289;42.688;23.330;2022-12-18T18:54:47;3.10;96.80
46562;DHT22;32289;42.688;23.330;2022-12-18T18:58:28;3.00;96.70
46562;DHT22;32289;42.688;23.330;2022-12-18T19:02:13;2.80;97.70
46562;DHT22;32289;42.688;23.330;2022-12-18T19:05:56;2.90;97.80
46562;DHT22;32289;42.688;23.330;2022-12-18T19:09:39;2.90;97.90
46562;DHT22;32289;42.688;23.330;2022-12-18T19:13:21;2.80;98.30
46562;DHT22;32289;42.688;23.330;2022-12-18T19:17:04;3.00;99.90
46562;DHT22;32289;42.688;23.330;2022-12-18T19:20:57;2.70;99.30
46562;DHT22;32289;42.688;23.330;2022-12-18T19:24:38;2.60;99.90
46562;DHT22;32289;42.688;23.330;2022-12-18T19:28:21;2.50;99.90
46562;DHT22;32289;42.688;23.330;2022-12-18T19:32:05;2.40;99.30
46562;DHT22;32289;42.688;23.330;2022-12-18T19:35:46;2.50;99.50
46562;DHT22;32289;42.688;23.330;2022-12-18T19:39:29;2.60;99.70
46562;DHT22;32289;42.688;23.330;2022-12-18T19:43:10;2.50;99.60
46562;DHT22;32289;42.688;23.330;2022-12-18T19:46:51;2.40;99.60
46562;DHT22;32289;42.688;23.330;2022-12-18T19:50:32;2.40;99.40
46562;DHT22;32289;42.688;23.330;2022-12-18T19:54:14;2.30;99.60
46562;DHT22;32289;42.688;23.330;2022-12-18T19:57:56;2.40;99.80
46562;DHT22;32289;42.688;23.330;2022-12-18T20:01:37;2.40;99.70
46562;DHT22;32289;42.688;23.330;2022-12-18T20:05:18;2.30;99.90
46562;DHT22;32289;42.688;23.330;2022-12-18T20:09:05;2.20;99.90
46562;DHT22;32289;42.688;23.330;2022-12-18T20:12:46;2.20;99.90
46562;DHT22;32289;42.688;23.330;2022-12-18T20:16:27;2.20;99.90
46562;DHT22;32289;42.688;23.330;2022-12-18T20:20:08;2.20;99.70
46562;DHT22;32289;42.688;23.330;2022-12-18T20:23:50;2.10;99.90
46562;DHT22;32289;42.688;23.330;2022-12-18T20:27:31;2.20;99.90
46562;DHT22;32289;42.688;23.330;2022-12-18T20:31:11;2.00;99.90
46562;DHT22;32289;42.688;23.330;2022-12-18T20:34:52;2.10;99.80
46562;DHT22;32289;42.688;23.330;2022-12-18T20:38:34;2.10;99.70
46562;DHT22;32289;42.688;23.330;2022-12-18T20:42:14;2.00;99.70
46562;DHT22;32289;42.688;23.330;2022-12-18T20:46:03;1.70;99.80
46562;DHT22;32289;42.688;23.330;2022-12-18T20:49:44;1.80;99.90
46562;DHT22;32289;42.688;23.330;2022-12-18T20:53:25;1.80;99.90
46562;DHT22;32289;42.688;23.330;2022-12-18T20:57:05;1.70;99.90
46562;DHT22;32289;42.688;23.330;2022-12-18T21:00:46;1.60;99.90
46562;DHT22;32289;42.688;23.330;2022-12-18T21:04:27;1.50;99.90
46562;DHT22;32289;42.688;23.330;2022-12-18T21:08:08;1.50;99.90
46562;DHT22;32289;42.688;23.330;2022-12-18T21:11:49;1.60;99.90
46562;DHT22;32289;42.688;23.330;2022-12-18T21:15:48;1.50;99.90
46562;DHT22;32289;42.688;23.330;2022-12-18T21:19:32;1.50;99.90
46562;DHT22;32289;42.688;23.330;2022-12-18T21:23:12;1.50;99.90
46562;DHT22;32289;42.688;23.330;2022-12-18T21:26:53;1.40;99.90
46562;DHT22;32289;42.688;23.330;2022-12-18T21:30:34;1.20;99.90
46562;DHT22;32289;42.688;23.330;2022-12-18T21:34:27;1.20;99.90
46562;DHT22;32289;42.688;23.330;2022-12-18T21:38:07;1.50;99.90
46562;DHT22;32289;42.688;23.330;2022-12-18T21:41:49;1.20;99.90
46562;DHT22;32289;42.688;23.330;2022-12-18T21:45:48;1.20;99.90
46562;DHT22;32289;42.688;23.330;2022-12-18T21:49:29;1.20;99.90
46562;DHT22;32289;42.688;23.330;2022-12-18T21:53:10;1.10;99.90
46562;DHT22;32289;42.688;23.330;2022-12-18T21:56:59;1.20;99.90
46562;DHT22;32289;42.688;23.330;2022-12-18T22:00:40;1.10;99.90
46562;DHT22;32289;42.688;23.330;2022-12-18T22:04:21;1.10;99.90
46562;DHT22;32289;42.688;23.330;2022-12-18T22:08:02;1.00;99.90
46562;DHT22;32289;42.688;23.330;2022-12-18T22:11:43;0.90;99.90
46562;DHT22;32289;42.688;23.330;2022-12-18T22:15:24;1.00;99.90
46562;DHT22;32289;42.688;23.330;2022-12-18T22:19:05;0.90;99.90
46562;DHT22;32289;42.688;23.330;2022-12-18T22:22:46;0.90;99.90
46562;DHT22;32289;42.688;23.330;2022-12-18T22:26:29;0.90;99.90
46562;DHT22;32289;42.688;23.330;2022-12-18T22:30:10;0.90;99.90
46562;DHT22;32289;42.688;23.330;2022-12-18T22:33:53;1.00;99.90
46562;DHT22;32289;42.688;23.330;2022-12-18T22:37:35;0.90;99.90
46562;DHT22;32289;42.688;23.330;2022-12-18T22:41:16;0.80;99.90
46562;DHT22;32289;42.688;23.330;2022-12-18T22:44:57;0.80;99.90
46562;DHT22;32289;42.688;23.330;2022-12-18T22:48:39;0.80;99.90
46562;DHT22;32289;42.688;23.330;2022-12-18T22:52:20;0.80;99.90
46562;DHT22;32289;42.688;23.330;2022-12-18T22:56:01;0.80;99.90
46562;DHT22;32289;42.688;23.330;2022-12-18T22:59:41;0.80;99.90
46562;DHT22;32289;42.688;23.330;2022-12-18T23:03:22;0.70;99.90
46562;DHT22;32289;42.688;23.330;2022-12-18T23:07:04;0.70;99.90
46562;DHT22;32289;42.688;23.330;2022-12-18T23:10:45;0.80;99.90
46562;DHT22;32289;42.688;23.330;2022-12-18T23:14:26;0.70;99.90
46562;DHT22;32289;42.688;23.330;2022-12-18T23:18:07;0.90;99.90
46562;DHT22;32289;42.688;23.330;2022-12-18T23:21:48;0.80;99.90
46562;DHT22;32289;42.688;23.330;2022-12-18T23:25:29;0.90;99.90
46562;DHT22;32289;42.688;23.330;2022-12-18T23:29:09;0.90;99.90
46562;DHT22;32289;42.688;23.330;2022-12-18T23:32:50;0.80;99.90
46562;DHT22;32289;42.688;23.330;2022-12-18T23:36:32;0.80;99.90
46562;DHT22;32289;42.688;23.330;2022-12-18T23:40:13;0.90;99.90
46562;DHT22;32289;42.688;23.330;2022-12-18T23:43:53;0.80;99.90
46562;DHT22;32289;42.688;23.330;2022-12-18T23:47:34;0.80;99.90
46562;DHT22;32289;42.688;23.330;2022-12-18T23:51:17;0.80;99.90
46562;DHT22;32289;42.688;23.330;2022-12-18T23:54:58;0.80;99.90
46562;DHT22;32289;42.688;23.330;2022-12-18T23:58:39;0.80;99.90
